sensor_id;sensor_type;location;lat;lon;timestamp;P1;durP1;ratioP1;P2;durP2;ratioP2
76336;SDS011;65157;50.082;18.178;2022-12-07T00:01:13;6.50;;;4.00;;
76336;SDS011;65157;50.082;18.178;2022-12-07T00:03:48;6.10;;;3.90;;
76336;SDS011;65157;50.082;18.178;2022-12-07T00:09:32;6.70;;;3.60;;
76336;SDS011;65157;50.082;18.178;2022-12-07T00:11:59;6.20;;;3.70;;
76336;SDS011;65157;50.082;18.178;2022-12-07T00:14:25;6.60;;;3.50;;
76336;SDS011;65157;50.082;18.178;2022-12-07T00:16:52;8.10;;;4.20;;
76336;SDS011;65157;50.082;18.178;2022-12-07T00:19:19;6.50;;;3.90;;
76336;SDS011;65157;50.082;18.178;2022-12-07T00:21:45;6.70;;;4.00;;
76336;SDS011;65157;50.082;18.178;2022-12-07T00:24:12;4.70;;;3.40;;
76336;SDS011;65157;50.082;18.178;2022-12-07T00:26:39;5.10;;;3.20;;
76336;SDS011;65157;50.082;18.178;2022-12-07T00:29:17;4.50;;;3.10;;
76336;SDS011;65157;50.082;18.178;2022-12-07T00:31:46;5.50;;;3.70;;
76336;SDS011;65157;50.082;18.178;2022-12-07T00:34:19;5.10;;;3.60;;
76336;SDS011;65157;50.082;18.178;2022-12-07T00:36:48;6.00;;;4.10;;
76336;SDS011;65157;50.082;18.178;2022-12-07T00:39:15;6.50;;;3.60;;
76336;SDS011;65157;50.082;18.178;2022-12-07T00:41:42;5.10;;;3.40;;
76336;SDS011;65157;50.082;18.178;2022-12-07T00:44:09;6.20;;;3.80;;
76336;SDS011;65157;50.082;18.178;2022-12-07T00:46:36;7.00;;;3.80;;
76336;SDS011;65157;50.082;18.178;2022-12-07T00:49:02;6.00;;;3.80;;
76336;SDS011;65157;50.082;18.178;2022-12-07T00:51:29;6.50;;;3.70;;
76336;SDS011;65157;50.082;18.178;2022-12-07T00:53:56;7.30;;;4.70;;
76336;SDS011;65157;50.082;18.178;2022-12-07T00:56:23;9.60;;;4.50;;
76336;SDS011;65157;50.082;18.178;2022-12-07T00:58:55;5.20;;;3.70;;
76336;SDS011;65157;50.082;18.178;2022-12-07T01:01:27;5.40;;;3.80;;
76336;SDS011;65157;50.082;18.178;2022-12-07T01:03:56;7.30;;;4.40;;
76336;SDS011;65157;50.082;18.178;2022-12-07T01:06:23;7.10;;;4.20;;
76336;SDS011;65157;50.082;18.178;2022-12-07T01:08:50;6.80;;;4.60;;
76336;SDS011;65157;50.082;18.178;2022-12-07T01:11:18;8.90;;;4.90;;
76336;SDS011;65157;50.082;18.178;2022-12-07T01:13:46;10.90;;;5.50;;
76336;SDS011;65157;50.082;18.178;2022-12-07T01:16:14;10.10;;;5.40;;
76336;SDS011;65157;50.082;18.178;2022-12-07T01:18:42;7.90;;;5.20;;
76336;SDS011;65157;50.082;18.178;2022-12-07T01:21:17;10.50;;;5.90;;
76336;SDS011;65157;50.082;18.178;2022-12-07T01:23:47;8.30;;;4.70;;
76336;SDS011;65157;50.082;18.178;2022-12-07T01:26:15;10.30;;;4.70;;
76336;SDS011;65157;50.082;18.178;2022-12-07T01:28:43;8.10;;;4.80;;
76336;SDS011;65157;50.082;18.178;2022-12-07T01:31:14;10.80;;;6.60;;
76336;SDS011;65157;50.082;18.178;2022-12-07T01:33:49;8.60;;;5.30;;
76336;SDS011;65157;50.082;18.178;2022-12-07T01:36:25;9.90;;;5.70;;
76336;SDS011;65157;50.082;18.178;2022-12-07T01:38:55;10.40;;;6.00;;
76336;SDS011;65157;50.082;18.178;2022-12-07T01:41:24;9.90;;;5.00;;
76336;SDS011;65157;50.082;18.178;2022-12-07T01:49:42;9.80;;;5.30;;
76336;SDS011;65157;50.082;18.178;2022-12-07T01:52:14;8.20;;;5.20;;
76336;SDS011;65157;50.082;18.178;2022-12-07T01:54:50;9.10;;;5.00;;
76336;SDS011;65157;50.082;18.178;2022-12-07T01:57:19;8.50;;;4.70;;
76336;SDS011;65157;50.082;18.178;2022-12-07T01:59:48;11.10;;;5.10;;
76336;SDS011;65157;50.082;18.178;2022-12-07T02:02:22;9.60;;;5.00;;
76336;SDS011;65157;50.082;18.178;2022-12-07T02:04:52;9.50;;;5.90;;
76336;SDS011;65157;50.082;18.178;2022-12-07T02:07:22;13.60;;;6.90;;
76336;SDS011;65157;50.082;18.178;2022-12-07T02:09:50;9.90;;;6.30;;
76336;SDS011;65157;50.082;18.178;2022-12-07T02:12:17;10.10;;;6.10;;
76336;SDS011;65157;50.082;18.178;2022-12-07T02:14:44;8.50;;;5.50;;
76336;SDS011;65157;50.082;18.178;2022-12-07T02:17:34;10.00;;;5.80;;
76336;SDS011;65157;50.082;18.178;2022-12-07T02:26:23;7.90;;;5.10;;
76336;SDS011;65157;50.082;18.178;2022-12-07T02:31:46;8.70;;;4.70;;
76336;SDS011;65157;50.082;18.178;2022-12-07T02:37:02;10.40;;;5.10;;
76336;SDS011;65157;50.082;18.178;2022-12-07T02:39:53;9.90;;;6.30;;
76336;SDS011;65157;50.082;18.178;2022-12-07T02:42:30;12.60;;;7.20;;
76336;SDS011;65157;50.082;18.178;2022-12-07T02:45:02;10.80;;;5.80;;
76336;SDS011;65157;50.082;18.178;2022-12-07T02:47:31;11.10;;;5.20;;
76336;SDS011;65157;50.082;18.178;2022-12-07T02:49:59;9.50;;;5.20;;
76336;SDS011;65157;50.082;18.178;2022-12-07T02:52:28;9.50;;;4.90;;
76336;SDS011;65157;50.082;18.178;2022-12-07T02:54:55;13.10;;;6.00;;
76336;SDS011;65157;50.082;18.178;2022-12-07T03:00:17;9.30;;;4.80;;
76336;SDS011;65157;50.082;18.178;2022-12-07T03:06:10;8.40;;;4.20;;
76336;SDS011;65157;50.082;18.178;2022-12-07T03:08:47;10.20;;;4.80;;
76336;SDS011;65157;50.082;18.178;2022-12-07T03:19:29;10.30;;;5.00;;
76336;SDS011;65157;50.082;18.178;2022-12-07T03:22:00;7.80;;;4.30;;
76336;SDS011;65157;50.082;18.178;2022-12-07T03:24:50;8.90;;;5.00;;
76336;SDS011;65157;50.082;18.178;2022-12-07T03:27:34;9.80;;;4.80;;
76336;SDS011;65157;50.082;18.178;2022-12-07T03:30:07;11.30;;;5.40;;
76336;SDS011;65157;50.082;18.178;2022-12-07T03:40:46;10.10;;;4.70;;
76336;SDS011;65157;50.082;18.178;2022-12-07T03:43:17;8.50;;;4.30;;
76336;SDS011;65157;50.082;18.178;2022-12-07T03:51:26;10.90;;;4.60;;
76336;SDS011;65157;50.082;18.178;2022-12-07T03:54:00;10.40;;;5.70;;
76336;SDS011;65157;50.082;18.178;2022-12-07T03:56:34;9.40;;;5.30;;
76336;SDS011;65157;50.082;18.178;2022-12-07T03:59:02;7.10;;;3.90;;
76336;SDS011;65157;50.082;18.178;2022-12-07T04:01:28;8.80;;;4.40;;
76336;SDS011;65157;50.082;18.178;2022-12-07T04:03:55;8.90;;;4.80;;
76336;SDS011;65157;50.082;18.178;2022-12-07T04:06:21;7.90;;;4.40;;
76336;SDS011;65157;50.082;18.178;2022-12-07T04:08:48;10.60;;;5.50;;
76336;SDS011;65157;50.082;18.178;2022-12-07T04:11:14;10.20;;;5.60;;
76336;SDS011;65157;50.082;18.178;2022-12-07T04:13:41;11.20;;;5.30;;
76336;SDS011;65157;50.082;18.178;2022-12-07T04:16:26;8.10;;;5.40;;
76336;SDS011;65157;50.082;18.178;2022-12-07T04:18:53;8.90;;;5.30;;
76336;SDS011;65157;50.082;18.178;2022-12-07T04:21:19;8.90;;;5.20;;
76336;SDS011;65157;50.082;18.178;2022-12-07T04:23:46;6.20;;;4.20;;
76336;SDS011;65157;50.082;18.178;2022-12-07T04:26:12;8.90;;;5.10;;
76336;SDS011;65157;50.082;18.178;2022-12-07T04:28:39;9.70;;;5.40;;
76336;SDS011;65157;50.082;18.178;2022-12-07T04:31:05;9.10;;;4.70;;
76336;SDS011;65157;50.082;18.178;2022-12-07T04:33:32;10.20;;;4.60;;
76336;SDS011;65157;50.082;18.178;2022-12-07T04:35:58;10.00;;;5.10;;
76336;SDS011;65157;50.082;18.178;2022-12-07T04:38:25;8.40;;;4.80;;
76336;SDS011;65157;50.082;18.178;2022-12-07T04:40:52;6.50;;;4.30;;
76336;SDS011;65157;50.082;18.178;2022-12-07T04:43:18;7.40;;;4.80;;
76336;SDS011;65157;50.082;18.178;2022-12-07T04:45:46;7.40;;;4.40;;
76336;SDS011;65157;50.082;18.178;2022-12-07T04:48:15;10.20;;;5.70;;
76336;SDS011;65157;50.082;18.178;2022-12-07T04:50:41;12.20;;;5.50;;
76336;SDS011;65157;50.082;18.178;2022-12-07T04:53:08;9.80;;;5.20;;
76336;SDS011;65157;50.082;18.178;2022-12-07T04:55:35;9.00;;;5.00;;
76336;SDS011;65157;50.082;18.178;2022-12-07T04:58:02;9.00;;;5.10;;
76336;SDS011;65157;50.082;18.178;2022-12-07T05:00:28;8.50;;;5.40;;
76336;SDS011;65157;50.082;18.178;2022-12-07T05:02:55;12.60;;;4.90;;
76336;SDS011;65157;50.082;18.178;2022-12-07T05:05:21;11.30;;;5.70;;
76336;SDS011;65157;50.082;18.178;2022-12-07T05:07:48;9.60;;;5.60;;
76336;SDS011;65157;50.082;18.178;2022-12-07T05:10:15;10.00;;;5.20;;
76336;SDS011;65157;50.082;18.178;2022-12-07T05:12:41;8.30;;;5.10;;
76336;SDS011;65157;50.082;18.178;2022-12-07T05:15:08;9.60;;;5.10;;
76336;SDS011;65157;50.082;18.178;2022-12-07T05:17:35;11.80;;;5.70;;
76336;SDS011;65157;50.082;18.178;2022-12-07T05:20:01;8.90;;;5.00;;
76336;SDS011;65157;50.082;18.178;2022-12-07T05:22:28;16.60;;;7.10;;
76336;SDS011;65157;50.082;18.178;2022-12-07T05:24:55;16.50;;;7.00;;
76336;SDS011;65157;50.082;18.178;2022-12-07T05:27:22;13.40;;;6.10;;
76336;SDS011;65157;50.082;18.178;2022-12-07T05:29:52;11.60;;;5.90;;
76336;SDS011;65157;50.082;18.178;2022-12-07T05:32:18;11.80;;;5.90;;
76336;SDS011;65157;50.082;18.178;2022-12-07T05:34:45;12.80;;;5.80;;
76336;SDS011;65157;50.082;18.178;2022-12-07T05:37:11;12.00;;;5.90;;
76336;SDS011;65157;50.082;18.178;2022-12-07T05:39:38;12.80;;;6.70;;
76336;SDS011;65157;50.082;18.178;2022-12-07T05:42:07;22.00;;;9.90;;
76336;SDS011;65157;50.082;18.178;2022-12-07T05:44:40;18.00;;;7.70;;
76336;SDS011;65157;50.082;18.178;2022-12-07T05:47:08;15.20;;;6.70;;
76336;SDS011;65157;50.082;18.178;2022-12-07T05:49:35;11.20;;;6.10;;
76336;SDS011;65157;50.082;18.178;2022-12-07T05:52:02;101.80;;;32.40;;
76336;SDS011;65157;50.082;18.178;2022-12-07T05:54:29;33.90;;;13.40;;
76336;SDS011;65157;50.082;18.178;2022-12-07T05:56:55;16.40;;;7.30;;
76336;SDS011;65157;50.082;18.178;2022-12-07T05:59:22;17.00;;;7.80;;
76336;SDS011;65157;50.082;18.178;2022-12-07T06:01:50;24.40;;;9.90;;
76336;SDS011;65157;50.082;18.178;2022-12-07T06:04:16;18.00;;;9.20;;
76336;SDS011;65157;50.082;18.178;2022-12-07T06:06:43;15.50;;;6.50;;
76336;SDS011;65157;50.082;18.178;2022-12-07T06:09:10;11.20;;;6.00;;
76336;SDS011;65157;50.082;18.178;2022-12-07T06:11:39;11.90;;;6.30;;
76336;SDS011;65157;50.082;18.178;2022-12-07T06:14:25;11.80;;;5.20;;
76336;SDS011;65157;50.082;18.178;2022-12-07T06:16:51;10.70;;;5.60;;
76336;SDS011;65157;50.082;18.178;2022-12-07T06:19:18;12.20;;;7.40;;
76336;SDS011;65157;50.082;18.178;2022-12-07T06:21:44;13.50;;;7.00;;
76336;SDS011;65157;50.082;18.178;2022-12-07T06:24:11;11.20;;;6.00;;
76336;SDS011;65157;50.082;18.178;2022-12-07T06:26:39;12.40;;;6.10;;
76336;SDS011;65157;50.082;18.178;2022-12-07T06:31:33;9.00;;;4.80;;
76336;SDS011;65157;50.082;18.178;2022-12-07T06:34:04;9.80;;;5.30;;
76336;SDS011;65157;50.082;18.178;2022-12-07T06:36:32;14.80;;;6.30;;
76336;SDS011;65157;50.082;18.178;2022-12-07T06:38:58;12.80;;;6.80;;
76336;SDS011;65157;50.082;18.178;2022-12-07T06:41:25;13.40;;;6.50;;
76336;SDS011;65157;50.082;18.178;2022-12-07T06:43:51;12.50;;;6.30;;
76336;SDS011;65157;50.082;18.178;2022-12-07T06:46:18;14.40;;;6.70;;
76336;SDS011;65157;50.082;18.178;2022-12-07T06:48:45;14.60;;;7.30;;
76336;SDS011;65157;50.082;18.178;2022-12-07T06:51:11;13.10;;;5.90;;
76336;SDS011;65157;50.082;18.178;2022-12-07T06:53:38;12.20;;;6.00;;
76336;SDS011;65157;50.082;18.178;2022-12-07T06:56:05;11.30;;;5.40;;
76336;SDS011;65157;50.082;18.178;2022-12-07T06:58:31;12.20;;;5.60;;
76336;SDS011;65157;50.082;18.178;2022-12-07T07:00:58;10.20;;;5.30;;
76336;SDS011;65157;50.082;18.178;2022-12-07T07:03:25;10.00;;;5.30;;
76336;SDS011;65157;50.082;18.178;2022-12-07T07:05:51;10.70;;;5.40;;
76336;SDS011;65157;50.082;18.178;2022-12-07T07:08:18;11.00;;;6.00;;
76336;SDS011;65157;50.082;18.178;2022-12-07T07:10:45;11.70;;;6.70;;
76336;SDS011;65157;50.082;18.178;2022-12-07T07:13:11;12.00;;;6.10;;
76336;SDS011;65157;50.082;18.178;2022-12-07T07:15:39;12.80;;;5.40;;
76336;SDS011;65157;50.082;18.178;2022-12-07T07:18:06;8.70;;;5.30;;
76336;SDS011;65157;50.082;18.178;2022-12-07T07:20:33;10.70;;;5.20;;
76336;SDS011;65157;50.082;18.178;2022-12-07T07:22:59;9.40;;;5.00;;
76336;SDS011;65157;50.082;18.178;2022-12-07T07:25:26;12.20;;;4.60;;
76336;SDS011;65157;50.082;18.178;2022-12-07T07:27:52;12.70;;;6.30;;
76336;SDS011;65157;50.082;18.178;2022-12-07T07:30:19;11.90;;;6.20;;
76336;SDS011;65157;50.082;18.178;2022-12-07T07:32:46;9.30;;;5.60;;
76336;SDS011;65157;50.082;18.178;2022-12-07T07:35:13;14.80;;;7.90;;
76336;SDS011;65157;50.082;18.178;2022-12-07T07:37:40;20.80;;;9.80;;
76336;SDS011;65157;50.082;18.178;2022-12-07T07:40:08;22.00;;;11.90;;
76336;SDS011;65157;50.082;18.178;2022-12-07T07:42:35;28.40;;;13.30;;
76336;SDS011;65157;50.082;18.178;2022-12-07T07:45:02;29.80;;;13.50;;
76336;SDS011;65157;50.082;18.178;2022-12-07T07:47:29;25.90;;;13.20;;
76336;SDS011;65157;50.082;18.178;2022-12-07T07:49:56;21.40;;;10.90;;
76336;SDS011;65157;50.082;18.178;2022-12-07T07:52:23;15.00;;;8.00;;
76336;SDS011;65157;50.082;18.178;2022-12-07T07:54:49;15.10;;;8.30;;
76336;SDS011;65157;50.082;18.178;2022-12-07T07:57:16;16.90;;;7.70;;
76336;SDS011;65157;50.082;18.178;2022-12-07T08:02:13;9.30;;;4.60;;
76336;SDS011;65157;50.082;18.178;2022-12-07T08:04:41;8.50;;;4.60;;
76336;SDS011;65157;50.082;18.178;2022-12-07T08:07:08;6.30;;;3.60;;
76336;SDS011;65157;50.082;18.178;2022-12-07T08:09:35;6.80;;;3.20;;
76336;SDS011;65157;50.082;18.178;2022-12-07T08:12:01;7.50;;;4.80;;
76336;SDS011;65157;50.082;18.178;2022-12-07T08:14:28;10.00;;;4.80;;
76336;SDS011;65157;50.082;18.178;2022-12-07T08:16:55;9.20;;;4.20;;
76336;SDS011;65157;50.082;18.178;2022-12-07T08:19:21;8.00;;;3.80;;
76336;SDS011;65157;50.082;18.178;2022-12-07T08:21:48;11.10;;;4.40;;
76336;SDS011;65157;50.082;18.178;2022-12-07T08:24:15;8.30;;;3.80;;
76336;SDS011;65157;50.082;18.178;2022-12-07T08:26:42;6.90;;;3.40;;
76336;SDS011;65157;50.082;18.178;2022-12-07T08:29:09;5.20;;;3.50;;
76336;SDS011;65157;50.082;18.178;2022-12-07T08:31:35;7.50;;;3.40;;
76336;SDS011;65157;50.082;18.178;2022-12-07T08:34:02;8.20;;;4.10;;
76336;SDS011;65157;50.082;18.178;2022-12-07T08:36:29;6.70;;;3.30;;
76336;SDS011;65157;50.082;18.178;2022-12-07T08:38:55;5.40;;;3.40;;
76336;SDS011;65157;50.082;18.178;2022-12-07T08:41:22;9.00;;;3.80;;
76336;SDS011;65157;50.082;18.178;2022-12-07T08:43:48;4.70;;;3.10;;
76336;SDS011;65157;50.082;18.178;2022-12-07T08:46:21;4.00;;;2.90;;
76336;SDS011;65157;50.082;18.178;2022-12-07T08:51:22;5.00;;;3.20;;
76336;SDS011;65157;50.082;18.178;2022-12-07T08:56:17;3.40;;;2.10;;
76336;SDS011;65157;50.082;18.178;2022-12-07T08:58:44;5.40;;;2.80;;
76336;SDS011;65157;50.082;18.178;2022-12-07T09:01:11;6.00;;;3.30;;
76336;SDS011;65157;50.082;18.178;2022-12-07T09:03:37;4.70;;;2.90;;
76336;SDS011;65157;50.082;18.178;2022-12-07T09:06:04;4.90;;;2.50;;
76336;SDS011;65157;50.082;18.178;2022-12-07T09:08:33;3.30;;;2.40;;
76336;SDS011;65157;50.082;18.178;2022-12-07T09:11:02;4.80;;;2.30;;
76336;SDS011;65157;50.082;18.178;2022-12-07T09:13:29;3.60;;;2.20;;
76336;SDS011;65157;50.082;18.178;2022-12-07T09:15:56;3.90;;;2.70;;
76336;SDS011;65157;50.082;18.178;2022-12-07T09:18:22;4.10;;;2.70;;
76336;SDS011;65157;50.082;18.178;2022-12-07T09:20:50;4.30;;;3.30;;
76336;SDS011;65157;50.082;18.178;2022-12-07T09:23:17;4.90;;;2.70;;
76336;SDS011;65157;50.082;18.178;2022-12-07T09:25:44;2.30;;;1.80;;
76336;SDS011;65157;50.082;18.178;2022-12-07T09:28:10;3.40;;;2.80;;
76336;SDS011;65157;50.082;18.178;2022-12-07T09:30:37;5.40;;;3.20;;
76336;SDS011;65157;50.082;18.178;2022-12-07T09:33:04;3.00;;;2.30;;
76336;SDS011;65157;50.082;18.178;2022-12-07T09:35:31;3.50;;;2.70;;
76336;SDS011;65157;50.082;18.178;2022-12-07T09:37:57;4.70;;;3.30;;
76336;SDS011;65157;50.082;18.178;2022-12-07T09:40:24;4.20;;;3.20;;
76336;SDS011;65157;50.082;18.178;2022-12-07T09:42:52;3.00;;;2.70;;
76336;SDS011;65157;50.082;18.178;2022-12-07T09:45:22;3.40;;;3.00;;
76336;SDS011;65157;50.082;18.178;2022-12-07T09:47:52;2.60;;;2.20;;
76336;SDS011;65157;50.082;18.178;2022-12-07T09:50:20;3.00;;;2.70;;
76336;SDS011;65157;50.082;18.178;2022-12-07T09:52:51;3.80;;;2.90;;
76336;SDS011;65157;50.082;18.178;2022-12-07T09:55:22;3.70;;;2.40;;
76336;SDS011;65157;50.082;18.178;2022-12-07T09:57:53;6.10;;;4.60;;
76336;SDS011;65157;50.082;18.178;2022-12-07T10:00:22;9.60;;;5.20;;
76336;SDS011;65157;50.082;18.178;2022-12-07T10:02:50;5.90;;;3.60;;
76336;SDS011;65157;50.082;18.178;2022-12-07T10:05:24;7.20;;;4.60;;
76336;SDS011;65157;50.082;18.178;2022-12-07T10:07:55;4.50;;;2.90;;
76336;SDS011;65157;50.082;18.178;2022-12-07T10:10:25;4.40;;;2.80;;
76336;SDS011;65157;50.082;18.178;2022-12-07T10:16:16;4.10;;;3.00;;
76336;SDS011;65157;50.082;18.178;2022-12-07T10:18:17;13.10;;;4.90;;
76336;SDS011;65157;50.082;18.178;2022-12-07T10:20:46;5.80;;;3.50;;
76336;SDS011;65157;50.082;18.178;2022-12-07T10:23:15;5.80;;;3.40;;
76336;SDS011;65157;50.082;18.178;2022-12-07T10:25:43;4.20;;;2.40;;
76336;SDS011;65157;50.082;18.178;2022-12-07T10:28:12;6.40;;;3.80;;
76336;SDS011;65157;50.082;18.178;2022-12-07T10:30:57;2.30;;;1.60;;
76336;SDS011;65157;50.082;18.178;2022-12-07T10:36:15;3.50;;;2.80;;
76336;SDS011;65157;50.082;18.178;2022-12-07T10:38:45;2.50;;;2.30;;
76336;SDS011;65157;50.082;18.178;2022-12-07T10:41:14;3.10;;;2.80;;
76336;SDS011;65157;50.082;18.178;2022-12-07T10:43:50;2.80;;;2.20;;
76336;SDS011;65157;50.082;18.178;2022-12-07T10:49:03;4.20;;;3.00;;
76336;SDS011;65157;50.082;18.178;2022-12-07T10:51:51;3.90;;;3.10;;
76336;SDS011;65157;50.082;18.178;2022-12-07T10:54:41;3.10;;;2.60;;
76336;SDS011;65157;50.082;18.178;2022-12-07T11:00:17;4.40;;;2.60;;
76336;SDS011;65157;50.082;18.178;2022-12-07T11:06:05;4.40;;;3.50;;
76336;SDS011;65157;50.082;18.178;2022-12-07T11:09:00;8.00;;;3.20;;
76336;SDS011;65157;50.082;18.178;2022-12-07T11:11:36;5.70;;;3.80;;
76336;SDS011;65157;50.082;18.178;2022-12-07T11:14:36;5.10;;;3.40;;
76336;SDS011;65157;50.082;18.178;2022-12-07T11:17:14;5.10;;;3.50;;
76336;SDS011;65157;50.082;18.178;2022-12-07T11:23:03;3.50;;;2.70;;
76336;SDS011;65157;50.082;18.178;2022-12-07T11:28:37;2.30;;;1.90;;
76336;SDS011;65157;50.082;18.178;2022-12-07T11:33:57;2.70;;;2.10;;
76336;SDS011;65157;50.082;18.178;2022-12-07T11:36:44;2.60;;;2.00;;
76336;SDS011;65157;50.082;18.178;2022-12-07T11:41:44;3.10;;;2.50;;
76336;SDS011;65157;50.082;18.178;2022-12-07T11:50:08;4.30;;;2.80;;
76336;SDS011;65157;50.082;18.178;2022-12-07T11:55:31;3.20;;;2.80;;
76336;SDS011;65157;50.082;18.178;2022-12-07T11:58:51;3.20;;;2.80;;
76336;SDS011;65157;50.082;18.178;2022-12-07T12:01:44;2.00;;;1.20;;
76336;SDS011;65157;50.082;18.178;2022-12-07T12:03:54;3.10;;;2.40;;
76336;SDS011;65157;50.082;18.178;2022-12-07T12:06:27;2.90;;;2.50;;
76336;SDS011;65157;50.082;18.178;2022-12-07T12:14:10;3.20;;;2.60;;
76336;SDS011;65157;50.082;18.178;2022-12-07T12:16:52;3.20;;;2.00;;
76336;SDS011;65157;50.082;18.178;2022-12-07T12:19:30;2.50;;;2.30;;
76336;SDS011;65157;50.082;18.178;2022-12-07T12:22:12;2.00;;;1.70;;
76336;SDS011;65157;50.082;18.178;2022-12-07T12:24:44;2.00;;;1.90;;
76336;SDS011;65157;50.082;18.178;2022-12-07T12:27:20;1.50;;;1.40;;
76336;SDS011;65157;50.082;18.178;2022-12-07T12:30:29;2.60;;;2.30;;
76336;SDS011;65157;50.082;18.178;2022-12-07T12:33:04;2.10;;;1.90;;
76336;SDS011;65157;50.082;18.178;2022-12-07T12:38:52;1.30;;;1.20;;
76336;SDS011;65157;50.082;18.178;2022-12-07T12:46:58;1.60;;;1.50;;
76336;SDS011;65157;50.082;18.178;2022-12-07T12:54:56;7.50;;;4.30;;
76336;SDS011;65157;50.082;18.178;2022-12-07T12:57:27;3.90;;;2.40;;
76336;SDS011;65157;50.082;18.178;2022-12-07T12:59:57;4.10;;;2.50;;
76336;SDS011;65157;50.082;18.178;2022-12-07T13:05:01;3.30;;;2.50;;
76336;SDS011;65157;50.082;18.178;2022-12-07T13:12:55;2.70;;;2.30;;
76336;SDS011;65157;50.082;18.178;2022-12-07T13:26:20;3.60;;;2.30;;
76336;SDS011;65157;50.082;18.178;2022-12-07T13:29:09;3.90;;;2.90;;
76336;SDS011;65157;50.082;18.178;2022-12-07T13:31:47;3.10;;;2.10;;
76336;SDS011;65157;50.082;18.178;2022-12-07T13:37:15;4.50;;;2.90;;
76336;SDS011;65157;50.082;18.178;2022-12-07T13:39:48;3.50;;;1.90;;
76336;SDS011;65157;50.082;18.178;2022-12-07T13:42:36;2.80;;;2.50;;
76336;SDS011;65157;50.082;18.178;2022-12-07T13:48:12;11.00;;;5.20;;
76336;SDS011;65157;50.082;18.178;2022-12-07T13:51:02;5.40;;;3.10;;
76336;SDS011;65157;50.082;18.178;2022-12-07T13:53:30;10.00;;;4.20;;
76336;SDS011;65157;50.082;18.178;2022-12-07T13:56:00;6.50;;;3.30;;
76336;SDS011;65157;50.082;18.178;2022-12-07T13:58:29;3.90;;;2.80;;
76336;SDS011;65157;50.082;18.178;2022-12-07T14:00:58;4.40;;;2.70;;
76336;SDS011;65157;50.082;18.178;2022-12-07T14:03:29;4.10;;;2.70;;
76336;SDS011;65157;50.082;18.178;2022-12-07T14:06:06;5.30;;;3.00;;
76336;SDS011;65157;50.082;18.178;2022-12-07T14:08:33;4.70;;;2.70;;
76336;SDS011;65157;50.082;18.178;2022-12-07T14:11:00;5.20;;;2.70;;
76336;SDS011;65157;50.082;18.178;2022-12-07T14:13:37;3.60;;;1.70;;
76336;SDS011;65157;50.082;18.178;2022-12-07T14:16:24;3.60;;;2.00;;
76336;SDS011;65157;50.082;18.178;2022-12-07T14:18:59;4.20;;;2.60;;
76336;SDS011;65157;50.082;18.178;2022-12-07T14:21:28;2.90;;;1.70;;
76336;SDS011;65157;50.082;18.178;2022-12-07T14:26:38;5.50;;;2.90;;
76336;SDS011;65157;50.082;18.178;2022-12-07T14:32:30;6.10;;;3.00;;
76336;SDS011;65157;50.082;18.178;2022-12-07T14:35:03;4.30;;;2.90;;
76336;SDS011;65157;50.082;18.178;2022-12-07T14:37:39;5.10;;;3.00;;
76336;SDS011;65157;50.082;18.178;2022-12-07T14:40:07;5.00;;;3.30;;
76336;SDS011;65157;50.082;18.178;2022-12-07T14:42:38;6.10;;;3.80;;
76336;SDS011;65157;50.082;18.178;2022-12-07T14:45:14;8.10;;;4.10;;
76336;SDS011;65157;50.082;18.178;2022-12-07T14:47:43;7.60;;;3.70;;
76336;SDS011;65157;50.082;18.178;2022-12-07T14:50:12;10.10;;;4.90;;
76336;SDS011;65157;50.082;18.178;2022-12-07T14:52:40;8.70;;;4.50;;
76336;SDS011;65157;50.082;18.178;2022-12-07T14:55:12;12.80;;;6.30;;
76336;SDS011;65157;50.082;18.178;2022-12-07T14:57:42;9.90;;;4.20;;
76336;SDS011;65157;50.082;18.178;2022-12-07T15:00:12;7.50;;;3.10;;
76336;SDS011;65157;50.082;18.178;2022-12-07T15:02:40;12.50;;;5.10;;
76336;SDS011;65157;50.082;18.178;2022-12-07T15:05:07;16.20;;;4.80;;
76336;SDS011;65157;50.082;18.178;2022-12-07T15:07:34;14.80;;;6.00;;
76336;SDS011;65157;50.082;18.178;2022-12-07T15:10:00;15.40;;;6.80;;
76336;SDS011;65157;50.082;18.178;2022-12-07T15:12:27;14.80;;;5.80;;
76336;SDS011;65157;50.082;18.178;2022-12-07T15:14:54;13.40;;;5.50;;
76336;SDS011;65157;50.082;18.178;2022-12-07T15:17:20;7.00;;;2.70;;
76336;SDS011;65157;50.082;18.178;2022-12-07T15:19:47;8.00;;;4.90;;
76336;SDS011;65157;50.082;18.178;2022-12-07T15:22:13;10.50;;;5.40;;
76336;SDS011;65157;50.082;18.178;2022-12-07T15:24:40;7.70;;;4.10;;
76336;SDS011;65157;50.082;18.178;2022-12-07T15:27:06;6.10;;;3.90;;
76336;SDS011;65157;50.082;18.178;2022-12-07T15:29:33;6.40;;;4.20;;
76336;SDS011;65157;50.082;18.178;2022-12-07T15:31:59;5.90;;;3.70;;
76336;SDS011;65157;50.082;18.178;2022-12-07T15:34:26;6.30;;;4.00;;
76336;SDS011;65157;50.082;18.178;2022-12-07T15:36:54;7.30;;;3.80;;
76336;SDS011;65157;50.082;18.178;2022-12-07T15:39:21;4.60;;;3.10;;
76336;SDS011;65157;50.082;18.178;2022-12-07T15:41:48;4.50;;;3.40;;
76336;SDS011;65157;50.082;18.178;2022-12-07T15:44:14;5.40;;;3.50;;
76336;SDS011;65157;50.082;18.178;2022-12-07T15:47:00;4.60;;;2.60;;
76336;SDS011;65157;50.082;18.178;2022-12-07T15:49:27;6.90;;;3.50;;
76336;SDS011;65157;50.082;18.178;2022-12-07T15:51:54;5.90;;;4.20;;
76336;SDS011;65157;50.082;18.178;2022-12-07T15:54:22;6.00;;;3.90;;
76336;SDS011;65157;50.082;18.178;2022-12-07T15:56:51;3.90;;;2.30;;
76336;SDS011;65157;50.082;18.178;2022-12-07T15:59:17;7.40;;;3.90;;
76336;SDS011;65157;50.082;18.178;2022-12-07T16:01:44;5.00;;;3.20;;
76336;SDS011;65157;50.082;18.178;2022-12-07T16:04:10;6.60;;;4.00;;
76336;SDS011;65157;50.082;18.178;2022-12-07T16:06:37;8.30;;;5.20;;
76336;SDS011;65157;50.082;18.178;2022-12-07T16:09:04;8.30;;;3.80;;
76336;SDS011;65157;50.082;18.178;2022-12-07T16:11:32;5.90;;;3.90;;
76336;SDS011;65157;50.082;18.178;2022-12-07T16:13:59;8.00;;;4.70;;
76336;SDS011;65157;50.082;18.178;2022-12-07T16:16:25;5.60;;;2.80;;
76336;SDS011;65157;50.082;18.178;2022-12-07T16:18:52;7.50;;;4.20;;
76336;SDS011;65157;50.082;18.178;2022-12-07T16:21:20;7.70;;;4.30;;
76336;SDS011;65157;50.082;18.178;2022-12-07T16:23:46;9.30;;;4.70;;
76336;SDS011;65157;50.082;18.178;2022-12-07T16:26:14;14.60;;;6.00;;
76336;SDS011;65157;50.082;18.178;2022-12-07T16:28:43;7.10;;;4.30;;
76336;SDS011;65157;50.082;18.178;2022-12-07T16:31:11;6.80;;;4.00;;
76336;SDS011;65157;50.082;18.178;2022-12-07T16:33:40;9.00;;;4.20;;
76336;SDS011;65157;50.082;18.178;2022-12-07T16:36:08;11.50;;;4.80;;
76336;SDS011;65157;50.082;18.178;2022-12-07T16:38:36;8.30;;;4.30;;
76336;SDS011;65157;50.082;18.178;2022-12-07T16:43:31;14.50;;;5.90;;
76336;SDS011;65157;50.082;18.178;2022-12-07T16:48:25;11.20;;;4.80;;
76336;SDS011;65157;50.082;18.178;2022-12-07T16:50:52;8.00;;;3.80;;
76336;SDS011;65157;50.082;18.178;2022-12-07T16:53:22;6.80;;;3.60;;
76336;SDS011;65157;50.082;18.178;2022-12-07T16:55:50;8.40;;;4.00;;
76336;SDS011;65157;50.082;18.178;2022-12-07T16:58:17;6.80;;;3.30;;
76336;SDS011;65157;50.082;18.178;2022-12-07T17:00:44;6.90;;;4.50;;
76336;SDS011;65157;50.082;18.178;2022-12-07T17:03:11;3.80;;;2.00;;
76336;SDS011;65157;50.082;18.178;2022-12-07T17:05:41;7.70;;;3.90;;
76336;SDS011;65157;50.082;18.178;2022-12-07T17:08:09;6.60;;;4.30;;
76336;SDS011;65157;50.082;18.178;2022-12-07T17:10:38;8.40;;;4.50;;
76336;SDS011;65157;50.082;18.178;2022-12-07T17:13:07;10.60;;;5.00;;
76336;SDS011;65157;50.082;18.178;2022-12-07T17:16:02;6.60;;;3.40;;